Time,TemperatureF,DewpointF,PressureIn,WindDirection,WindDirectionDegrees,WindSpeedMPH,WindSpeedGustMPH,Humidity,HourlyPrecipIn,Conditions,Clouds,dailyrainin,SolarRadiationWatts/m^2,SoftwareType,DateUTC
2013-03-14 00:02:00,55.0,18.0,-100.00,NNW,339,4.0,6.0,23,0.00,,,0.00,0.000000,,2013-03-14 07:02:00,
2013-03-14 00:11:00,55.0,18.0,-100.00,NNW,339,4.0,6.0,23,0.00,,,0.00,0.000000,,2013-03-14 07:11:00,
2013-03-14 00:22:00,55.0,18.0,-100.00,NNW,339,4.0,6.0,23,0.00,,,0.00,0.000000,,2013-03-14 07:22:00,
2013-03-14 00:52:00,54.0,20.0,-100.00,NW,325,4.0,6.0,26,0.00,,,0.00,0.000000,,2013-03-14 07:52:00,
2013-03-14 01:02:00,54.0,20.0,-100.00,NW,325,4.0,6.0,26,0.00,,,0.00,0.000000,,2013-03-14 08:02:00,
2013-03-14 01:11:00,54.0,20.0,-100.00,NW,325,4.0,6.0,26,0.00,,,0.00,0.000000,,2013-03-14 08:11:00,
2013-03-14 01:21:00,54.0,20.0,-100.00,NW,325,4.0,6.0,26,0.00,,,0.00,0.000000,,2013-03-14 08:21:00,
2013-03-14 01:52:00,53.0,18.0,-100.00,West,277,3.0,8.0,25,0.00,,,0.00,0.000000,,2013-03-14 08:52:00,
2013-03-14 02:01:00,53.0,18.0,-100.00,West,277,3.0,8.0,25,0.00,,,0.00,0.000000,,2013-03-14 09:01:00,
2013-03-14 02:12:00,53.0,18.0,-100.00,West,277,3.0,8.0,25,0.00,,,0.00,0.000000,,2013-03-14 09:12:00,
2013-03-14 02:22:00,53.0,18.0,-100.00,West,277,3.0,8.0,25,0.00,,,0.00,0.000000,,2013-03-14 09:22:00,
2013-03-14 02:52:00,53.0,19.0,-100.00,NNW,334,5.0,8.0,26,0.00,,,0.00,0.000000,,2013-03-14 09:52:00,
2013-03-14 03:02:00,53.0,19.0,-100.00,NNW,334,5.0,8.0,26,0.00,,,0.00,0.000000,,2013-03-14 10:02:00,
2013-03-14 03:12:00,53.0,19.0,-100.00,NNW,334,5.0,8.0,26,0.00,,,0.00,0.000000,,2013-03-14 10:12:00,
2013-03-14 03:22:00,53.0,19.0,-100.00,NNW,334,5.0,8.0,26,0.00,,,0.00,0.000000,,2013-03-14 10:22:00,
2013-03-14 03:52:00,51.0,18.0,-100.00,NW,321,6.0,9.0,27,0.00,,,0.00,0.000000,,2013-03-14 10:52:00,
2013-03-14 04:02:00,51.0,18.0,-100.00,NW,321,6.0,9.0,27,0.00,,,0.00,0.000000,,2013-03-14 11:02:00,
2013-03-14 04:12:00,51.0,18.0,-100.00,NW,321,6.0,9.0,27,0.00,,,0.00,0.000000,,2013-03-14 11:12:00,
2013-03-14 04:22:00,51.0,18.0,-100.00,NW,321,6.0,9.0,27,0.00,,,0.00,0.000000,,2013-03-14 11:22:00,
2013-03-14 04:52:00,51.0,18.0,-100.00,NW,317,5.0,9.0,27,0.00,,,0.00,0.000000,,2013-03-14 11:52:00,
2013-03-14 05:02:00,51.0,18.0,-100.00,NW,317,5.0,9.0,27,0.00,,,0.00,0.000000,,2013-03-14 12:02:00,
2013-03-14 05:12:00,51.0,18.0,-100.00,NW,317,5.0,9.0,27,0.00,,,0.00,0.000000,,2013-03-14 12:12:00,
2013-03-14 05:22:00,51.0,18.0,-100.00,NW,317,5.0,9.0,27,0.00,,,0.00,0.000000,,2013-03-14 12:22:00,
2013-03-14 05:52:00,51.0,18.0,-100.00,NW,306,7.0,9.0,27,0.00,,,0.00,0.000000,,2013-03-14 12:52:00,
2013-03-14 06:12:00,51.0,18.0,-100.00,NW,306,7.0,9.0,27,0.00,,,0.00,0.000000,,2013-03-14 13:12:00,
2013-03-14 06:21:00,51.0,18.0,-100.00,NW,306,7.0,9.0,27,0.00,,,0.00,0.000000,,2013-03-14 13:21:00,
2013-03-14 06:52:00,50.0,17.0,-100.00,NW,317,5.0,8.0,27,0.00,,,-99.99,0.000000,,2013-03-14 13:52:00,
2013-03-14 07:12:00,50.0,17.0,-100.00,NW,317,5.0,8.0,27,0.00,,,-99.99,0.000000,,2013-03-14 14:12:00,
2013-03-14 07:22:00,50.0,17.0,-100.00,NW,317,5.0,8.0,27,0.00,,,-99.99,0.000000,,2013-03-14 14:22:00,
2013-03-14 07:53:00,52.0,19.0,-100.00,NW,304,5.0,7.0,27,0.00,,,0.00,3.000000,,2013-03-14 14:53:00,
2013-03-14 08:02:00,52.0,19.0,-100.00,NW,304,5.0,7.0,27,0.00,,,0.00,3.000000,,2013-03-14 15:02:00,
2013-03-14 08:12:00,52.0,19.0,-100.00,NW,304,5.0,7.0,27,0.00,,,0.00,3.000000,,2013-03-14 15:12:00,
2013-03-14 08:21:00,52.0,19.0,-100.00,NW,304,5.0,7.0,27,0.00,,,0.00,3.000000,,2013-03-14 15:21:00,
2013-03-14 08:52:00,66.0,21.0,-100.00,ESE,116,4.0,9.0,18,0.00,,,0.00,74.000000,,2013-03-14 15:52:00,
2013-03-14 09:02:00,66.0,21.0,-100.00,ESE,116,4.0,9.0,18,0.00,,,0.00,74.000000,,2013-03-14 16:02:00,
2013-03-14 09:12:00,66.0,21.0,-100.00,ESE,116,4.0,9.0,18,0.00,,,0.00,74.000000,,2013-03-14 16:12:00,
2013-03-14 09:22:00,66.0,21.0,-100.00,ESE,116,4.0,9.0,18,0.00,,,0.00,74.000000,,2013-03-14 16:22:00,
2013-03-14 09:52:00,68.0,19.0,-100.00,ESE,105,9.0,14.0,15,0.00,,,0.00,166.000000,,2013-03-14 16:52:00,
2013-03-14 10:02:00,68.0,19.0,-100.00,ESE,105,9.0,14.0,15,0.00,,,0.00,166.000000,,2013-03-14 17:02:00,
2013-03-14 10:22:00,68.0,19.0,-100.00,ESE,105,9.0,14.0,15,0.00,,,0.00,166.000000,,2013-03-14 17:22:00,
2013-03-14 10:52:00,70.0,17.0,-100.00,ENE,71,10.0,14.0,13,0.00,,,0.00,544.000000,,2013-03-14 17:52:00,
2013-03-14 11:02:00,70.0,17.0,-100.00,ENE,71,10.0,14.0,13,0.00,,,0.00,544.000000,,2013-03-14 18:02:00,
2013-03-14 11:12:00,70.0,17.0,-100.00,ENE,71,10.0,14.0,13,0.00,,,0.00,544.000000,,2013-03-14 18:12:00,
2013-03-14 11:22:00,70.0,17.0,-100.00,ENE,71,10.0,14.0,13,0.00,,,0.00,544.000000,,2013-03-14 18:22:00,
2013-03-14 11:52:00,73.0,17.0,-100.00,East,89,8.0,15.0,12,0.00,,,0.00,813.000000,,2013-03-14 18:52:00,
2013-03-14 12:02:00,73.0,17.0,-100.00,East,89,8.0,15.0,12,0.00,,,0.00,813.000000,,2013-03-14 19:02:00,
2013-03-14 12:12:00,73.0,17.0,-100.00,East,89,8.0,15.0,12,0.00,,,0.00,813.000000,,2013-03-14 19:12:00,
2013-03-14 12:22:00,73.0,17.0,-100.00,East,89,8.0,15.0,12,0.00,,,0.00,813.000000,,2013-03-14 19:22:00,
2013-03-14 13:52:00,78.0,17.0,-100.00,East,93,10.0,18.0,10,-99.99,,,0.00,980.000000,,2013-03-14 20:52:00,
2013-03-14 14:02:00,78.0,17.0,-100.00,East,93,10.0,18.0,10,-99.99,,,0.00,980.000000,,2013-03-14 21:02:00,
2013-03-14 14:12:00,78.0,17.0,-100.00,East,93,10.0,18.0,10,-99.99,,,0.00,980.000000,,2013-03-14 21:12:00,
2013-03-14 14:22:00,78.0,17.0,-100.00,East,93,10.0,18.0,10,-99.99,,,0.00,980.000000,,2013-03-14 21:22:00,
2013-03-14 14:53:00,76.0,13.0,-100.00,East,95,10.0,17.0,9,0.00,,,0.00,924.000000,,2013-03-14 21:53:00,
2013-03-14 15:03:00,76.0,13.0,-100.00,East,95,10.0,17.0,9,0.00,,,0.00,924.000000,,2013-03-14 22:03:00,
2013-03-14 15:12:00,76.0,13.0,-100.00,East,95,10.0,17.0,9,0.00,,,0.00,924.000000,,2013-03-14 22:12:00,
2013-03-14 15:23:00,76.0,13.0,-100.00,East,95,10.0,17.0,9,0.00,,,0.00,924.000000,,2013-03-14 22:23:00,
2013-03-14 15:52:00,80.0,13.0,-100.00,SSW,197,4.0,19.0,8,0.00,,,0.00,842.000000,,2013-03-14 22:52:00,
2013-03-14 16:02:00,80.0,13.0,-100.00,SSW,197,4.0,19.0,8,0.00,,,0.00,842.000000,,2013-03-14 23:02:00,
2013-03-14 16:12:00,80.0,13.0,-100.00,SSW,197,4.0,19.0,8,0.00,,,0.00,842.000000,,2013-03-14 23:12:00,
2013-03-14 16:22:00,80.0,13.0,-100.00,SSW,197,4.0,19.0,8,0.00,,,0.00,842.000000,,2013-03-14 23:22:00,
2013-03-14 16:53:00,78.0,17.0,-100.00,South,186,5.0,11.0,10,0.00,,,0.00,515.000000,,2013-03-14 23:53:00,
2013-03-14 17:02:00,78.0,17.0,-100.00,South,186,5.0,11.0,10,0.00,,,0.00,515.000000,,2013-03-15 00:02:00,
2013-03-14 17:12:00,78.0,17.0,-100.00,South,186,5.0,11.0,10,0.00,,,0.00,515.000000,,2013-03-15 00:12:00,
2013-03-14 17:22:00,78.0,17.0,-100.00,South,186,5.0,11.0,10,0.00,,,0.00,515.000000,,2013-03-15 00:22:00,
2013-03-14 17:52:00,78.0,19.0,-100.00,WNW,288,7.0,14.0,11,0.00,,,0.00,472.000000,,2013-03-15 00:52:00,
2013-03-14 18:02:00,78.0,19.0,-100.00,WNW,288,7.0,14.0,11,0.00,,,0.00,472.000000,,2013-03-15 01:02:00,
2013-03-14 18:11:00,78.0,19.0,-100.00,WNW,288,7.0,14.0,11,0.00,,,0.00,472.000000,,2013-03-15 01:11:00,
2013-03-14 18:21:00,78.0,19.0,-100.00,WNW,288,7.0,14.0,11,0.00,,,0.00,472.000000,,2013-03-15 01:21:00,
2013-03-14 18:52:00,70.0,28.0,-100.00,WNW,302,7.0,17.0,21,0.00,,,0.00,145.000000,,2013-03-15 01:52:00,
2013-03-14 19:02:00,70.0,28.0,-100.00,WNW,302,7.0,17.0,21,0.00,,,0.00,145.000000,,2013-03-15 02:02:00,
2013-03-14 19:12:00,70.0,28.0,-100.00,WNW,302,7.0,17.0,21,0.00,,,0.00,145.000000,,2013-03-15 02:12:00,
2013-03-14 19:22:00,70.0,28.0,-100.00,WNW,302,7.0,17.0,21,0.00,,,0.00,145.000000,,2013-03-15 02:22:00,
2013-03-14 19:52:00,66.0,26.0,-100.00,WNW,303,9.0,16.0,22,0.00,,,0.00,17.000000,,2013-03-15 02:52:00,
2013-03-14 20:02:00,66.0,26.0,-100.00,WNW,303,9.0,16.0,22,0.00,,,0.00,17.000000,,2013-03-15 03:02:00,
2013-03-14 20:12:00,66.0,26.0,-100.00,WNW,303,9.0,16.0,22,0.00,,,0.00,17.000000,,2013-03-15 03:12:00,
2013-03-14 20:22:00,66.0,26.0,-100.00,WNW,303,9.0,16.0,22,0.00,,,0.00,17.000000,,2013-03-15 03:22:00,
2013-03-14 20:53:00,64.0,23.0,-100.00,South,173,5.0,13.0,21,0.00,,,0.00,0.000000,,2013-03-15 03:53:00,
2013-03-14 21:03:00,64.0,23.0,-100.00,South,173,5.0,13.0,21,0.00,,,0.00,0.000000,,2013-03-15 04:03:00,
2013-03-14 21:12:00,64.0,23.0,-100.00,South,173,5.0,13.0,21,0.00,,,0.00,0.000000,,2013-03-15 04:12:00,
2013-03-14 21:22:00,64.0,23.0,-100.00,South,173,5.0,13.0,21,0.00,,,0.00,0.000000,,2013-03-15 04:22:00,
2013-03-14 21:53:00,59.0,22.0,-100.00,WNW,297,3.0,10.0,24,0.00,,,0.00,0.000000,,2013-03-15 04:53:00,
2013-03-14 22:02:00,59.0,22.0,-100.00,WNW,297,3.0,10.0,24,0.00,,,0.00,0.000000,,2013-03-15 05:02:00,
2013-03-14 22:12:00,59.0,22.0,-100.00,WNW,297,3.0,10.0,24,0.00,,,0.00,0.000000,,2013-03-15 05:12:00,
2013-03-14 22:22:00,59.0,22.0,-100.00,WNW,297,3.0,10.0,24,0.00,,,0.00,0.000000,,2013-03-15 05:22:00,
2013-03-14 22:52:00,57.0,24.0,-100.00,WNW,299,6.0,8.0,28,0.00,,,0.00,0.000000,,2013-03-15 05:52:00,
2013-03-14 23:02:00,57.0,24.0,-100.00,WNW,299,6.0,8.0,28,0.00,,,0.00,0.000000,,2013-03-15 06:02:00,
2013-03-14 23:12:00,57.0,24.0,-100.00,WNW,299,6.0,8.0,28,0.00,,,0.00,0.000000,,2013-03-15 06:12:00,
2013-03-14 23:22:00,57.0,24.0,-100.00,WNW,299,6.0,8.0,28,0.00,,,0.00,0.000000,,2013-03-15 06:22:00,
2013-03-14 23:53:00,57.0,27.0,-100.00,NW,324,5.0,9.0,31,0.00,,,0.00,0.000000,,2013-03-15 06:53:00,